createdAt,value
2023-04-24T00:00:41.821Z,99030.31
2023-04-24T00:03:09.212Z,99029.50
2023-04-24T00:05:36.207Z,99027.44
2023-04-24T00:08:03.114Z,99039.25
2023-04-24T00:10:31.392Z,99030.59
2023-04-24T00:12:58.223Z,99021.94
2023-04-24T00:15:25.178Z,99023.25
2023-04-24T00:17:52.989Z,99012.28
2023-04-24T00:20:20.018Z,99018.28
2023-04-24T00:22:46.901Z,99006.09
2023-04-24T00:25:13.847Z,99007.34
2023-04-24T00:27:41.194Z,99013.84
2023-04-24T00:30:11.805Z,99001.28
2023-04-24T00:32:38.807Z,99001.75
2023-04-24T00:35:06.932Z,99002.53
2023-04-24T00:37:34.708Z,98997.31
2023-04-24T00:40:01.535Z,98997.03
2023-04-24T00:42:31.666Z,98992.09
2023-04-24T00:44:58.899Z,98988.47
2023-04-24T00:47:26.780Z,98986.88
2023-04-24T00:49:53.745Z,98975.91
2023-04-24T00:52:21.776Z,98982.69
2023-04-24T00:54:48.725Z,98978.25
2023-04-24T00:57:16.468Z,98974.06
2023-04-24T00:59:44.433Z,98967.47
2023-04-24T01:02:12.507Z,98969.06
2023-04-24T01:04:40.586Z,98964.34
2023-04-24T01:07:12.400Z,98971.91
2023-04-24T01:09:43.291Z,98976.38
2023-04-24T01:12:10.874Z,98971.91
2023-04-24T01:14:38.719Z,98979.50
2023-04-24T01:17:05.536Z,98974.06
2023-04-24T01:19:32.371Z,98965.38
2023-04-24T01:22:02.946Z,98961.72
2023-04-24T01:24:31.052Z,98971.09
2023-04-24T01:26:58.055Z,98961.44
2023-04-24T01:29:25.381Z,98958.59
2023-04-24T01:31:52.425Z,98961.38
2023-04-24T01:34:19.637Z,98955.38
2023-04-24T01:36:47.949Z,98946.59
2023-04-24T01:39:16.411Z,98948.13
2023-04-24T01:41:43.350Z,98948.34
2023-04-24T01:44:10.300Z,98952.75
2023-04-24T01:46:37.473Z,98949.09
2023-04-24T01:49:05.274Z,98942.25
2023-04-24T01:51:32.671Z,98938.06
2023-04-24T01:53:59.577Z,98936.00
2023-04-24T01:56:26.627Z,98932.84
2023-04-24T01:58:54.967Z,98933.38
2023-04-24T02:01:22.263Z,98931.78
2023-04-24T02:03:49.311Z,98929.44
2023-04-24T02:06:16.773Z,98929.66
2023-04-24T02:08:43.845Z,98925.53
2023-04-24T02:11:11.497Z,98929.44
2023-04-24T02:13:38.474Z,98917.22
2023-04-24T02:16:05.617Z,98915.59
2023-04-24T02:18:52.384Z,98920.75
2023-04-24T02:21:19.188Z,98919.16
2023-04-24T02:23:46.275Z,98917.59
2023-04-24T02:26:13.920Z,98924.69
2023-04-24T02:28:40.838Z,98921.53
2023-04-24T02:31:07.866Z,98919.25
2023-04-24T02:33:34.719Z,98930.16
2023-04-24T02:36:01.744Z,98920.75
2023-04-24T02:38:28.659Z,98910.31
2023-04-24T02:40:55.568Z,98922.53
2023-04-24T02:43:22.444Z,98917.28
2023-04-24T02:45:50.019Z,98913.09
2023-04-24T02:48:18.123Z,98914.63
2023-04-24T02:50:45.118Z,98910.72
2023-04-24T02:53:12.048Z,98904.94
2023-04-24T02:55:39.001Z,98905.25
2023-04-24T02:58:07.062Z,98900.19
2023-04-24T03:00:34.217Z,98898.34
2023-04-24T03:03:01.293Z,98898.09
2023-04-24T03:05:28.464Z,98899.13
2023-04-24T03:07:55.407Z,98895.16
2023-04-24T03:10:23.721Z,98894.13
2023-04-24T03:12:51.021Z,98893.94
2023-04-24T03:15:19.310Z,98897.06
2023-04-24T03:17:46.358Z,98893.13
2023-04-24T03:20:13.541Z,98890.28
2023-04-24T03:22:40.636Z,98887.41
2023-04-24T03:25:10.574Z,98890.28
2023-04-24T03:27:38.766Z,98895.53
2023-04-24T03:30:13.055Z,98895.03
2023-04-24T03:32:46.840Z,98890.84
2023-04-24T03:35:18.110Z,98884.59
2023-04-24T03:37:45.009Z,98893.03
2023-04-24T03:40:32.030Z,98891.44
2023-04-24T03:42:59.542Z,98901.44
2023-04-24T03:45:26.667Z,98900.91
2023-04-24T03:47:53.492Z,98894.66
2023-04-24T03:50:20.497Z,98890.22
2023-04-24T03:52:48.153Z,98887.88
2023-04-24T03:55:29.229Z,98885.47
2023-04-24T03:57:56.086Z,98894.06
2023-04-24T04:00:23.410Z,98889.88
2023-04-24T04:03:02.491Z,98886.75
2023-04-24T04:05:29.833Z,98890.38
2023-04-24T04:07:57.768Z,98888.81
2023-04-24T04:10:24.925Z,98886.94
2023-04-24T04:12:51.783Z,98888.72
2023-04-24T04:15:19.111Z,98890.97
2023-04-24T04:17:47.080Z,98898.81
2023-04-24T04:20:14.520Z,98894.63
2023-04-24T04:22:44.322Z,98893.94
2023-04-24T04:25:15.534Z,98886.38
2023-04-24T04:27:43.435Z,98901.78
2023-04-24T04:30:13.537Z,98902.06
2023-04-24T04:32:52.470Z,98901.09
2023-04-24T04:35:19.350Z,98897.19
2023-04-24T04:37:46.645Z,98891.19
2023-04-24T04:40:41.775Z,98885.75
2023-04-24T04:43:09.068Z,98899.63
2023-04-24T04:45:45.276Z,98894.75
2023-04-24T04:48:39.075Z,98889.06
2023-04-24T04:51:07.692Z,98895.88
2023-04-24T04:53:34.649Z,98896.97
2023-04-24T04:56:02.480Z,98887.38
2023-04-24T04:58:37.455Z,98892.41
2023-04-24T05:01:06.139Z,98891.66
2023-04-24T05:03:39.380Z,98899.00
2023-04-24T05:06:11.046Z,98893.03
2023-04-24T05:08:41.929Z,98895.69
2023-04-24T05:11:13.031Z,98891.59
2023-04-24T05:13:41.658Z,98889.53
2023-04-24T05:16:17.634Z,98899.81
2023-04-24T05:18:45.160Z,98889.94
2023-04-24T05:21:15.139Z,98902.78
2023-04-24T05:23:44.972Z,98907.03
2023-04-24T05:26:16.602Z,98908.63
2023-04-24T05:28:43.453Z,98909.44
2023-04-24T05:31:13.545Z,98915.22
2023-04-24T05:33:40.891Z,98916.28
2023-04-24T05:36:10.293Z,98913.91
2023-04-24T05:38:37.270Z,98914.47
2023-04-24T05:41:04.197Z,98914.72
2023-04-24T05:43:31.239Z,98922.81
2023-04-24T05:45:58.282Z,98923.16
2023-04-24T05:48:25.198Z,98923.50
2023-04-24T05:50:53.602Z,98923.56
2023-04-24T05:53:20.957Z,98928.84
2023-04-24T05:55:49.261Z,98918.97
2023-04-24T05:58:16.629Z,98930.06
2023-04-24T06:00:44.541Z,98930.09
2023-04-24T06:03:12.951Z,98932.75
2023-04-24T06:05:40.811Z,98930.13
2023-04-24T06:08:07.860Z,98933.75
2023-04-24T06:10:38.462Z,98927.66
2023-04-24T06:13:07.786Z,98921.09
2023-04-24T06:15:37.262Z,98921.59
2023-04-24T06:18:07.679Z,98924.38
2023-04-24T06:20:37.113Z,98928.00
2023-04-24T06:23:04.017Z,98919.47
2023-04-24T06:25:33.875Z,98918.47
2023-04-24T06:28:00.933Z,98928.69
2023-04-24T06:30:30.439Z,98921.69
2023-04-24T06:33:03.137Z,98925.88
2023-04-24T06:35:39.152Z,98927.66
2023-04-24T06:38:06.503Z,98921.09
2023-04-24T06:40:33.280Z,98919.91
2023-04-24T06:43:01.146Z,98923.50
2023-04-24T06:45:28.029Z,98920.00
2023-04-24T06:47:56.378Z,98915.41
2023-04-24T06:50:23.675Z,98924.16
2023-04-24T06:52:50.534Z,98914.00
2023-04-24T06:55:17.650Z,98921.22
2023-04-24T06:57:45.846Z,98913.34
2023-04-24T07:00:13.387Z,98906.72
2023-04-24T07:02:40.543Z,98908.88
2023-04-24T07:05:09.459Z,98908.72
2023-04-24T07:07:39.872Z,98902.09
2023-04-24T07:10:07.677Z,98895.63
2023-04-24T07:12:34.434Z,98896.66
2023-04-24T07:15:02.129Z,98895.94
2023-04-24T07:17:32.473Z,98891.88
2023-04-24T07:19:59.371Z,98902.25
2023-04-24T07:22:26.287Z,98904.41
2023-04-24T07:24:53.190Z,98905.78
2023-04-24T07:27:20.035Z,98911.47
2023-04-24T07:29:47.114Z,98918.66
2023-04-24T07:32:14.180Z,98915.44
2023-04-24T07:34:41.548Z,98921.19
2023-04-24T07:37:08.485Z,98921.97
2023-04-24T07:39:35.523Z,98928.69
2023-04-24T07:42:03.400Z,98933.09
2023-04-24T07:44:31.599Z,98926.22
2023-04-24T07:47:01.814Z,98924.09
2023-04-24T07:49:29.601Z,98923.78
2023-04-24T07:51:57.999Z,98924.63
2023-04-24T07:54:26.426Z,98931.78
2023-04-24T07:56:55.456Z,98932.84
2023-04-24T07:59:22.388Z,98933.38
2023-04-24T08:01:55.729Z,98934.16
2023-04-24T08:04:23.540Z,98945.59
2023-04-24T08:06:51.109Z,98947.81
2023-04-24T08:09:19.107Z,98942.94
2023-04-24T08:11:46.201Z,98933.97
2023-04-24T08:14:14.422Z,98943.03
2023-04-24T08:16:41.860Z,98948.50
2023-04-24T08:19:10.585Z,98941.47
2023-04-24T08:21:37.590Z,98948.41
2023-04-24T08:24:08.132Z,98947.72
2023-04-24T08:26:35.286Z,98940.31
2023-04-24T08:29:02.510Z,98937.19
2023-04-24T08:31:29.439Z,98936.31
2023-04-24T08:33:59.797Z,98945.53
2023-04-24T08:36:35.960Z,98946.34
2023-04-24T08:39:12.088Z,98939.63
2023-04-24T08:41:40.118Z,98949.66
2023-04-24T08:44:09.004Z,98947.47
2023-04-24T08:46:39.133Z,98941.47
2023-04-24T08:49:06.776Z,98947.72
2023-04-24T08:51:34.525Z,98956.13
2023-04-24T08:54:01.965Z,98955.94
2023-04-24T08:56:31.233Z,98950.25
2023-04-24T08:58:58.126Z,98947.69
2023-04-24T09:01:26.559Z,98944.47
2023-04-24T09:03:54.618Z,98946.47
2023-04-24T09:06:23.197Z,98952.69
2023-04-24T09:08:54.907Z,98951.50
2023-04-24T09:11:25.335Z,98949.56
2023-04-24T09:13:53.117Z,98956.53
2023-04-24T09:16:20.452Z,98956.88
2023-04-24T09:18:47.456Z,98961.06
2023-04-24T09:21:14.353Z,98970.56
2023-04-24T09:23:41.957Z,98972.72
2023-04-24T09:26:11.623Z,98967.81
2023-04-24T09:28:43.101Z,98963.97
2023-04-24T09:31:15.035Z,98973.38
2023-04-24T09:33:56.494Z,98968.66
2023-04-24T09:36:36.464Z,98973.97
2023-04-24T09:39:05.579Z,98976.84
2023-04-24T09:41:34.171Z,98970.34
2023-04-24T09:44:16.807Z,98977.19
2023-04-24T09:46:45.767Z,98976.59
2023-04-24T09:49:16.016Z,98974.72
2023-04-24T09:51:43.913Z,98985.22
2023-04-24T09:54:19.503Z,98984.44
2023-04-24T09:56:48.940Z,98982.38
2023-04-24T09:59:17.774Z,98991.53
2023-04-24T10:01:46.034Z,98984.50
2023-04-24T10:04:21.477Z,98991.56
2023-04-24T10:06:50.085Z,98988.94
2023-04-24T10:09:19.973Z,98985.88
2023-04-24T10:11:50.396Z,98987.16
2023-04-24T10:14:21.667Z,98999.75
2023-04-24T10:16:49.347Z,99005.47
2023-04-24T10:19:17.554Z,98994.22
2023-04-24T10:21:48.082Z,99007.84
2023-04-24T10:24:19.732Z,99016.50
2023-04-24T10:26:50.782Z,99016.81
2023-04-24T10:29:19.453Z,99010.03
2023-04-24T10:31:47.945Z,99015.75
2023-04-24T10:34:18.082Z,99017.09
2023-04-24T10:36:50.974Z,99017.09
2023-04-24T10:39:19.792Z,99018.13
2023-04-24T10:41:59.563Z,99032.03
2023-04-24T10:44:36.753Z,99023.34
2023-04-24T10:47:03.814Z,99028.59
2023-04-24T10:49:32.555Z,99027.25
2023-04-24T10:52:06.773Z,99026.00
2023-04-24T10:54:41.607Z,99035.91
2023-04-24T10:57:21.397Z,99028.34
2023-04-24T11:00:10.536Z,99038.53
2023-04-24T11:02:41.648Z,99033.28
2023-04-24T11:05:09.355Z,99034.34
2023-04-24T11:08:14.738Z,99038.84
2023-04-24T11:10:55.073Z,99031.75
2023-04-24T11:13:26.902Z,99037.50
2023-04-24T11:16:16.169Z,99030.16
2023-04-24T11:18:51.923Z,99028.59
2023-04-24T11:21:20.120Z,99033.81
2023-04-24T11:23:48.037Z,99038.53
2023-04-24T11:26:21.014Z,99034.88
2023-04-24T11:28:49.768Z,99042.22
2023-04-24T11:31:39.998Z,99032.78
2023-04-24T11:34:15.229Z,99034.28
2023-04-24T11:36:45.271Z,99026.16
2023-04-24T11:39:12.725Z,99033.75
2023-04-24T11:41:40.175Z,99030.34
2023-04-24T11:44:09.842Z,99035.84
2023-04-24T11:46:41.097Z,99029.84
2023-04-24T11:49:08.573Z,99027.75
2023-04-24T11:51:47.822Z,99024.63
2023-04-24T11:54:18.275Z,99027.00
2023-04-24T11:56:50.435Z,99036.94
2023-04-24T11:59:17.302Z,99019.59
2023-04-24T12:01:48.484Z,99038.72
2023-04-24T12:04:19.216Z,99025.56
2023-04-24T12:07:06.305Z,99032.13
2023-04-24T12:09:44.089Z,99028.31
2023-04-24T12:12:13.213Z,99026.13
2023-04-24T12:14:57.510Z,99026.75
2023-04-24T12:17:32.627Z,99024.28
2023-04-24T12:20:05.310Z,99027.41
2023-04-24T12:22:56.298Z,99022.78
2023-04-24T12:25:28.300Z,99017.56
2023-04-24T12:28:16.859Z,99018.91
2023-04-24T12:30:49.446Z,99014.97
2023-04-24T12:33:21.065Z,99029.91
2023-04-24T12:35:52.457Z,99023.34
2023-04-24T12:38:25.675Z,99024.94
2023-04-24T12:41:15.405Z,99029.59
2023-04-24T12:43:53.862Z,99024.13
2023-04-24T12:46:22.505Z,99030.69
2023-04-24T12:48:50.092Z,99031.47
2023-04-24T12:51:17.393Z,99023.09
2023-04-24T12:53:44.336Z,99019.66
2023-04-24T12:56:11.405Z,99013.66
2023-04-24T12:58:38.286Z,99018.13
2023-04-24T13:01:06.661Z,99007.38
2023-04-24T13:03:33.876Z,99013.34
2023-04-24T13:06:00.772Z,99010.72
2023-04-24T13:08:27.806Z,99010.22
2023-04-24T13:10:55.004Z,99008.06
2023-04-24T13:13:22.112Z,99002.78
2023-04-24T13:15:48.956Z,98996.56
2023-04-24T13:18:17.370Z,98991.81
2023-04-24T13:20:45.132Z,98988.84
2023-04-24T13:23:17.290Z,98994.09
2023-04-24T13:25:44.220Z,99002.16
2023-04-24T13:28:11.104Z,99000.78
2023-04-24T13:30:39.168Z,98992.09
2023-04-24T13:33:06.491Z,98998.44
2023-04-24T13:35:33.859Z,98987.50
2023-04-24T13:38:02.563Z,98999.06
2023-04-24T13:40:29.641Z,98978.66
2023-04-24T13:43:00.133Z,98987.28
2023-04-24T13:45:27.296Z,98984.97
2023-04-24T13:47:55.992Z,98976.84
2023-04-24T13:50:23.188Z,98981.06
2023-04-24T13:52:50.397Z,98983.16
2023-04-24T13:55:18.722Z,98978.63
2023-04-24T13:57:47.112Z,98971.28
2023-04-24T14:00:14.812Z,98972.75
2023-04-24T14:02:41.932Z,98973.56
2023-04-24T14:05:09.461Z,98978.00
2023-04-24T14:07:37.153Z,98960.81
2023-04-24T14:10:06.720Z,98972.84
2023-04-24T14:12:33.721Z,98969.94
2023-04-24T14:15:00.752Z,98978.41
2023-04-24T14:17:28.087Z,98975.00
2023-04-24T14:19:57.338Z,98979.19
2023-04-24T14:22:24.818Z,98979.66
2023-04-24T14:24:51.832Z,98969.94
2023-04-24T14:27:19.010Z,98983.22
2023-04-24T14:29:46.330Z,98972.50
2023-04-24T14:32:16.135Z,98975.28
2023-04-24T14:34:43.301Z,98974.72
2023-04-24T14:37:10.225Z,98977.69
2023-04-24T14:39:37.028Z,98965.16
2023-04-24T14:42:04.002Z,98969.59
2023-04-24T14:44:31.069Z,98963.00
2023-04-24T14:47:01.994Z,98967.84
2023-04-24T14:49:29.063Z,98973.25
2023-04-24T14:51:56.554Z,98964.75
2023-04-24T14:54:24.441Z,98970.38
2023-04-24T14:56:51.922Z,98973.22
2023-04-24T14:59:18.819Z,98969.63
2023-04-24T15:01:46.142Z,98972.69
2023-04-24T15:04:13.431Z,98972.69
2023-04-24T15:06:41.865Z,98967.41
2023-04-24T15:09:09.260Z,98966.31
2023-04-24T15:11:36.081Z,98965.16
2023-04-24T15:14:03.947Z,98966.72
2023-04-24T15:16:31.120Z,98953.69
2023-04-24T15:18:59.329Z,98964.94
2023-04-24T15:21:26.951Z,98965.53
2023-04-24T15:23:53.790Z,98965.03
2023-04-24T15:26:21.052Z,98962.19
2023-04-24T15:28:49.054Z,98965.94
2023-04-24T15:31:16.308Z,98967.81
2023-04-24T15:33:43.401Z,98970.69
2023-04-24T15:36:10.665Z,98976.00
2023-04-24T15:38:37.939Z,98973.69
2023-04-24T15:41:05.100Z,98976.97
2023-04-24T15:43:35.274Z,98983.47
2023-04-24T15:46:03.306Z,98987.38
2023-04-24T15:48:30.719Z,98986.88
2023-04-24T15:50:57.612Z,98990.94
2023-04-24T15:53:24.904Z,99001.56
2023-04-24T15:55:53.130Z,98991.91
2023-04-24T15:58:21.679Z,98995.81
2023-04-24T16:00:48.915Z,98999.22
2023-04-24T16:03:15.962Z,99000.31
2023-04-24T16:05:42.859Z,99007.56
2023-04-24T16:08:10.624Z,99009.19
2023-04-24T16:10:37.705Z,99015.19
2023-04-24T16:13:06.695Z,99013.38
2023-04-24T16:15:36.447Z,99022.78
2023-04-24T16:18:05.610Z,99025.47
2023-04-24T16:20:33.975Z,99022.34
2023-04-24T16:23:01.087Z,99026.78
2023-04-24T16:25:28.258Z,99021.75
2023-04-24T16:27:55.617Z,99023.06
2023-04-24T16:30:22.743Z,99020.00
2023-04-24T16:32:50.047Z,99023.13
2023-04-24T16:35:17.024Z,99024.69
2023-04-24T16:37:43.957Z,99021.31
2023-04-24T16:40:11.303Z,99024.44
2023-04-24T16:42:39.818Z,99016.09
2023-04-24T16:45:07.452Z,99025.31
2023-04-24T16:47:35.935Z,99025.84
2023-04-24T16:50:02.886Z,99033.16
2023-04-24T16:52:31.900Z,99028.72
2023-04-24T16:54:59.568Z,99029.75
2023-04-24T16:57:26.747Z,99034.47
2023-04-24T16:59:53.576Z,99039.59
2023-04-24T17:02:20.567Z,99041.03
2023-04-24T17:04:48.242Z,99035.81
2023-04-24T17:07:15.641Z,99034.00
2023-04-24T17:09:42.748Z,99031.09
2023-04-24T17:12:10.954Z,99035.78
2023-04-24T17:14:37.898Z,99049.78
2023-04-24T17:17:05.003Z,99057.38
2023-04-24T17:19:31.991Z,99054.91
2023-04-24T17:21:59.237Z,99065.53
2023-04-24T17:24:27.336Z,99065.22
2023-04-24T17:26:58.964Z,99073.25
2023-04-24T17:29:28.900Z,99070.88
2023-04-24T17:31:55.874Z,99070.31
2023-04-24T17:34:22.818Z,99070.59
2023-04-24T17:36:50.569Z,99075.81
2023-04-24T17:39:17.673Z,99085.13
2023-04-24T17:41:44.597Z,99083.88
2023-04-24T17:44:14.464Z,99086.03
2023-04-24T17:46:43.014Z,99076.34
2023-04-24T17:49:10.835Z,99082.16
2023-04-24T17:51:37.725Z,99085.66
2023-04-24T17:54:04.739Z,99085.09
2023-04-24T17:56:31.710Z,99092.66
2023-04-24T17:58:59.712Z,99098.31
2023-04-24T18:01:31.077Z,99107.81
2023-04-24T18:03:58.584Z,99101.22
2023-04-24T18:06:26.100Z,99101.66
2023-04-24T18:08:52.911Z,99092.84
2023-04-24T18:11:20.953Z,99104.03
2023-04-24T18:13:49.030Z,99101.13
2023-04-24T18:16:16.142Z,99100.56
2023-04-24T18:18:43.247Z,99108.03
2023-04-24T18:21:10.462Z,99106.06
2023-04-24T18:23:38.056Z,99115.34
2023-04-24T18:26:05.062Z,99110.94
2023-04-24T18:28:34.775Z,99116.22
2023-04-24T18:31:02.502Z,99110.34
2023-04-24T18:33:29.546Z,99119.94
2023-04-24T18:35:58.415Z,99114.75
2023-04-24T18:38:26.180Z,99121.31
2023-04-24T18:40:53.124Z,99136.91
2023-04-24T18:43:20.252Z,99130.69
2023-04-24T18:45:47.524Z,99122.53
2023-04-24T18:48:14.678Z,99124.69
2023-04-24T18:50:41.602Z,99134.41
2023-04-24T18:53:15.289Z,99131.06
2023-04-24T18:55:42.179Z,99129.59
2023-04-24T18:58:09.088Z,99128.34
2023-04-24T19:00:36.280Z,99129.69
2023-04-24T19:03:03.630Z,99133.28
2023-04-24T19:05:31.281Z,99134.34
2023-04-24T19:07:58.902Z,99137.25
2023-04-24T19:10:25.765Z,99141.34
2023-04-24T19:12:56.632Z,99135.69
2023-04-24T19:15:24.844Z,99137.81
2023-04-24T19:17:51.988Z,99140.22
2023-04-24T19:20:22.025Z,99133.81
2023-04-24T19:22:48.892Z,99139.22
2023-04-24T19:25:15.776Z,99143.59
2023-04-24T19:27:42.711Z,99144.44
2023-04-24T19:30:11.357Z,99150.97
2023-04-24T19:32:38.434Z,99151.75
2023-04-24T19:35:05.980Z,99147.22
2023-04-24T19:37:34.430Z,99150.84
2023-04-24T19:40:01.930Z,99159.56
2023-04-24T19:42:42.552Z,99156.94
2023-04-24T19:45:14.622Z,99156.16
2023-04-24T19:47:41.613Z,99151.63
2023-04-24T19:50:09.767Z,99151.84
2023-04-24T19:52:36.673Z,99147.81
2023-04-24T19:55:03.939Z,99154.69
2023-04-24T19:57:31.252Z,99151.75
2023-04-24T19:59:58.191Z,99149.25
2023-04-24T20:02:25.311Z,99153.97
2023-04-24T20:04:52.382Z,99150.69
2023-04-24T20:07:19.422Z,99139.28
2023-04-24T20:09:46.198Z,99147.53
2023-04-24T20:12:13.238Z,99143.44
2023-04-24T20:14:40.558Z,99143.22
2023-04-24T20:17:07.857Z,99148.41
2023-04-24T20:19:34.681Z,99146.59
2023-04-24T20:22:01.649Z,99149.78
2023-04-24T20:24:28.631Z,99149.31
2023-04-24T20:26:55.472Z,99141.84
2023-04-24T20:29:22.306Z,99146.81
2023-04-24T20:31:49.358Z,99144.09
2023-04-24T20:34:16.479Z,99144.59
2023-04-24T20:36:47.963Z,99150.59
2023-04-24T20:39:16.383Z,99137.44
2023-04-24T20:41:44.201Z,99147.84
2023-04-24T20:44:12.251Z,99146.53
2023-04-24T20:46:39.406Z,99151.81
2023-04-24T20:49:06.352Z,99131.13
2023-04-24T20:51:37.378Z,99137.94
2023-04-24T20:54:08.689Z,99144.81
2023-04-24T20:56:36.483Z,99142.34
2023-04-24T20:59:03.470Z,99149.91
2023-04-24T21:01:35.390Z,99148.44
2023-04-24T21:04:06.332Z,99139.28
2023-04-24T21:06:33.276Z,99133.28
2023-04-24T21:09:00.481Z,99138.63
2023-04-24T21:11:27.572Z,99141.31
2023-04-24T21:13:54.338Z,99139.16
2023-04-24T21:16:21.391Z,99143.13
2023-04-24T21:18:48.226Z,99143.00
2023-04-24T21:21:15.034Z,99142.34
2023-04-24T21:23:41.918Z,99141.78
2023-04-24T21:26:08.863Z,99141.31
2023-04-24T21:28:36.489Z,99143.81
2023-04-24T21:31:05.266Z,99133.41
2023-04-24T21:33:32.232Z,99127.41
2023-04-24T21:36:00.222Z,99138.00
2023-04-24T21:38:27.526Z,99126.38
2023-04-24T21:40:57.955Z,99125.38
2023-04-24T21:43:30.786Z,99129.78
2023-04-24T21:46:05.194Z,99135.22
2023-04-24T21:48:34.685Z,99130.78
2023-04-24T21:51:01.711Z,99138.22
2023-04-24T21:53:29.739Z,99135.88
2023-04-24T21:55:56.778Z,99130.34
2023-04-24T21:58:24.104Z,99127.63
2023-04-24T22:00:51.066Z,99124.97
2023-04-24T22:03:18.017Z,99122.88
2023-04-24T22:05:45.118Z,99121.91
2023-04-24T22:08:11.981Z,99126.44
2023-04-24T22:10:39.047Z,99127.81
2023-04-24T22:13:06.016Z,99115.47
2023-04-24T22:15:33.334Z,99119.78
2023-04-24T22:18:01.601Z,99127.66
2023-04-24T22:20:29.223Z,99120.91
2023-04-24T22:22:56.114Z,99123.41
2023-04-24T22:25:22.886Z,99124.06
2023-04-24T22:27:49.861Z,99131.88
2023-04-24T22:30:18.194Z,99136.75
2023-04-24T22:32:45.424Z,99132.88
2023-04-24T22:35:12.473Z,99128.16
2023-04-24T22:37:39.525Z,99129.03
2023-04-24T22:40:08.641Z,99139.09
2023-04-24T22:42:35.620Z,99136.63
2023-04-24T22:45:02.592Z,99140.69
2023-04-24T22:47:30.963Z,99132.88
2023-04-24T22:49:58.650Z,99149.41
2023-04-24T22:52:26.379Z,99142.38
2023-04-24T22:54:53.610Z,99148.81
2023-04-24T22:57:21.382Z,99148.03
2023-04-24T22:59:48.406Z,99141.81
2023-04-24T23:02:16.984Z,99147.59
2023-04-24T23:04:43.872Z,99149.72
2023-04-24T23:07:11.239Z,99145.09
2023-04-24T23:09:38.051Z,99155.03
2023-04-24T23:12:05.255Z,99146.00
2023-04-24T23:14:32.096Z,99144.88
2023-04-24T23:17:01.477Z,99135.03
2023-04-24T23:19:28.442Z,99136.63
2023-04-24T23:21:56.040Z,99142.38
2023-04-24T23:24:23.205Z,99143.41
2023-04-24T23:26:51.826Z,99132.88
2023-04-24T23:29:18.750Z,99130.63
2023-04-24T23:31:45.563Z,99127.47
2023-04-24T23:34:12.479Z,99137.06
2023-04-24T23:36:40.736Z,99139.91
2023-04-24T23:39:07.596Z,99132.66
2023-04-24T23:41:34.486Z,99136.28
2023-04-24T23:44:03.551Z,99126.66
2023-04-24T23:46:30.551Z,99130.06
2023-04-24T23:48:58.968Z,99126.66
2023-04-24T23:51:26.100Z,99136.75
2023-04-24T23:53:53.529Z,99128.56
2023-04-24T23:56:24.265Z,99134.47
2023-04-24T23:58:51.770Z,99125.66
